createdAt,value
2022-11-23T00:02:31.087Z,96.53
2022-11-23T00:05:19.946Z,104.40
2022-11-23T00:08:09.095Z,108.30
2022-11-23T00:10:51.230Z,94.78
2022-11-23T00:13:39.950Z,94.97
2022-11-23T00:16:33.360Z,100.00
2022-11-23T00:19:15.081Z,103.50
2022-11-23T00:22:04.547Z,105.75
2022-11-23T00:24:59.208Z,104.68
2022-11-23T00:27:41.277Z,96.45
2022-11-23T00:30:31.060Z,100.65
2022-11-23T00:33:20.099Z,95.13
2022-11-23T00:36:22.980Z,99.57
2022-11-23T00:39:08.412Z,101.10
2022-11-23T00:41:57.996Z,108.13
2022-11-23T00:44:40.283Z,102.25
2022-11-23T00:47:28.989Z,100.28
2022-11-23T00:50:19.323Z,100.05
2022-11-23T00:53:00.950Z,113.43
2022-11-23T00:55:59.458Z,101.88
2022-11-23T00:58:42.015Z,107.63
2022-11-23T01:01:26.810Z,105.82
2022-11-23T01:04:19.958Z,101.07
2022-11-23T01:07:13.025Z,107.28
2022-11-23T01:09:55.286Z,103.90
2022-11-23T01:12:43.956Z,108.28
2022-11-23T01:15:26.377Z,103.82
2022-11-23T01:18:15.058Z,103.72
2022-11-23T01:20:57.804Z,116.75
2022-11-23T01:23:46.946Z,110.10
2022-11-23T01:26:36.336Z,112.05
2022-11-23T01:29:19.067Z,171.15
2022-11-23T01:32:07.979Z,144.05
2022-11-23T01:34:56.970Z,125.43
2022-11-23T01:37:46.083Z,112.50
2022-11-23T01:40:28.473Z,123.35
2022-11-23T01:43:24.087Z,111.90
2022-11-23T01:46:08.308Z,116.25
2022-11-23T01:49:07.079Z,124.53
2022-11-23T01:51:52.421Z,120.95
2022-11-23T01:54:52.012Z,126.75
2022-11-23T01:57:41.399Z,127.60
2022-11-23T02:00:29.941Z,123.78
2022-11-23T02:03:14.461Z,121.82
2022-11-23T02:06:09.582Z,123.57
2022-11-23T02:08:52.333Z,125.82
2022-11-23T02:11:41.074Z,130.93
2022-11-23T02:14:23.707Z,134.90
2022-11-23T02:17:14.014Z,131.00
2022-11-23T02:20:09.977Z,136.85
2022-11-23T02:23:30.944Z,164.20
2022-11-23T02:26:43.043Z,135.65
2022-11-23T02:29:36.003Z,131.85
2022-11-23T02:32:25.061Z,128.38
2022-11-23T02:35:14.043Z,128.63
2022-11-23T02:38:05.036Z,130.57
2022-11-23T02:40:47.625Z,135.40
2022-11-23T02:43:38.055Z,148.93
2022-11-23T02:46:27.009Z,147.90
2022-11-23T02:49:09.248Z,138.23
2022-11-23T02:51:58.065Z,142.55
2022-11-23T02:54:40.277Z,157.27
2022-11-23T02:57:29.126Z,156.20
2022-11-23T03:00:13.468Z,153.48
2022-11-23T03:03:03.106Z,158.70
2022-11-23T03:05:46.312Z,151.43
2022-11-23T03:08:35.008Z,152.40
2022-11-23T03:11:17.315Z,156.98
2022-11-23T03:14:06.039Z,176.82
2022-11-23T03:16:58.368Z,171.75
2022-11-23T03:19:53.062Z,191.07
2022-11-23T03:22:37.449Z,180.52
2022-11-23T03:25:27.992Z,202.93
2022-11-23T03:28:19.044Z,195.98
2022-11-23T03:31:01.377Z,190.00
2022-11-23T03:33:51.973Z,187.93
2022-11-23T03:36:42.009Z,199.07
2022-11-23T03:39:31.180Z,185.63
2022-11-23T03:42:40.101Z,188.75
2022-11-23T03:45:22.428Z,191.90
2022-11-23T03:48:11.052Z,183.95
2022-11-23T03:50:54.365Z,184.73
2022-11-23T03:53:43.913Z,180.75
2022-11-23T03:56:26.380Z,190.95
2022-11-23T03:59:15.904Z,172.95
2022-11-23T04:01:59.378Z,161.77
2022-11-23T04:04:51.893Z,153.70
2022-11-23T04:07:58.407Z,120.30
2022-11-23T04:10:47.046Z,125.70
2022-11-23T04:13:38.976Z,106.60
2022-11-23T04:16:29.040Z,108.28
2022-11-23T04:19:11.237Z,95.50
2022-11-23T04:22:00.048Z,92.15
2022-11-23T04:25:00.833Z,86.03
2022-11-23T04:27:50.049Z,85.50
2022-11-23T04:30:33.324Z,73.72
2022-11-23T04:33:21.936Z,70.40
2022-11-23T04:36:11.913Z,83.85
2022-11-23T04:39:01.299Z,77.05
2022-11-23T04:41:51.898Z,70.78
2022-11-23T04:44:48.048Z,64.53
2022-11-23T04:47:37.318Z,57.97
2022-11-23T04:50:21.947Z,72.25
2022-11-23T04:53:12.301Z,65.35
2022-11-23T04:55:55.982Z,63.67
2022-11-23T04:58:49.328Z,61.10
2022-11-23T05:01:32.958Z,59.70
2022-11-23T05:04:51.144Z,52.50
2022-11-23T05:07:44.248Z,48.30
2022-11-23T05:10:41.896Z,48.83
2022-11-23T05:13:24.795Z,49.13
2022-11-23T05:16:14.064Z,54.25
2022-11-23T05:18:57.169Z,51.47
2022-11-23T05:21:47.929Z,57.55
2022-11-23T05:24:44.911Z,77.20
2022-11-23T05:27:36.916Z,70.15
2022-11-23T05:30:20.258Z,68.00
2022-11-23T05:33:10.912Z,71.72
2022-11-23T05:35:54.258Z,77.50
2022-11-23T05:38:50.914Z,69.47
2022-11-23T05:41:45.977Z,85.32
2022-11-23T05:44:49.169Z,72.65
2022-11-23T05:47:44.940Z,66.55
2022-11-23T05:50:35.271Z,69.47
2022-11-23T05:53:53.129Z,72.95
2022-11-23T05:57:06.589Z,69.72
2022-11-23T05:59:56.929Z,64.97
2022-11-23T06:02:54.927Z,74.53
2022-11-23T06:05:40.491Z,71.05
2022-11-23T06:08:29.092Z,69.25
2022-11-23T06:11:13.484Z,71.00
2022-11-23T06:14:03.053Z,70.95
2022-11-23T06:16:45.358Z,67.65
2022-11-23T06:19:54.053Z,63.42
2022-11-23T06:22:36.244Z,67.70
2022-11-23T06:25:30.927Z,69.60
2022-11-23T06:28:30.249Z,64.13
2022-11-23T06:31:20.908Z,71.88
2022-11-23T06:34:10.277Z,72.25
2022-11-23T06:36:52.950Z,74.65
2022-11-23T06:39:42.332Z,86.65
2022-11-23T06:42:38.431Z,87.97
2022-11-23T06:45:34.235Z,80.13
2022-11-23T06:48:27.032Z,86.18
2022-11-23T06:51:10.214Z,91.80
2022-11-23T06:54:01.035Z,91.70
2022-11-23T06:56:43.217Z,82.25
2022-11-23T06:59:32.181Z,85.63
2022-11-23T07:02:21.902Z,65.90
2022-11-23T07:05:06.318Z,46.78
2022-11-23T07:07:56.031Z,49.80
2022-11-23T07:10:38.279Z,51.38
2022-11-23T07:13:31.009Z,42.35
2022-11-23T07:16:20.101Z,48.67
2022-11-23T07:19:08.298Z,44.85
2022-11-23T07:21:51.049Z,42.83
2022-11-23T07:24:39.517Z,33.28
2022-11-23T07:27:32.033Z,43.55
2022-11-23T07:30:28.976Z,44.65
2022-11-23T07:33:18.031Z,39.45
2022-11-23T07:36:10.585Z,39.47
2022-11-23T07:38:53.966Z,35.17
2022-11-23T07:41:43.033Z,41.58
2022-11-23T07:44:44.032Z,36.67
2022-11-23T07:47:32.295Z,40.92
2022-11-23T07:50:17.042Z,39.38
2022-11-23T07:53:06.275Z,41.65
2022-11-23T07:55:48.062Z,38.05
2022-11-23T07:58:30.203Z,42.33
2022-11-23T08:01:20.051Z,35.42
2022-11-23T08:04:02.210Z,34.92
2022-11-23T08:06:50.883Z,42.38
2022-11-23T08:09:39.894Z,31.25
2022-11-23T08:12:22.763Z,32.20
2022-11-23T08:15:11.946Z,39.00
2022-11-23T08:17:54.756Z,33.03
2022-11-23T08:20:44.048Z,34.03
2022-11-23T08:23:26.797Z,30.90
2022-11-23T08:26:15.926Z,33.22
2022-11-23T08:29:04.991Z,46.47
2022-11-23T08:31:53.873Z,32.90
2022-11-23T08:34:43.039Z,32.10
2022-11-23T08:37:25.261Z,34.83
2022-11-23T08:40:13.994Z,34.35
2022-11-23T08:42:56.223Z,36.70
2022-11-23T08:45:44.920Z,29.45
2022-11-23T08:48:33.892Z,27.15
2022-11-23T08:51:22.908Z,39.22
2022-11-23T08:54:12.185Z,34.05
2022-11-23T08:57:01.035Z,37.22
2022-11-23T08:59:50.329Z,30.52
2022-11-23T09:02:34.010Z,31.30
2022-11-23T09:05:22.941Z,27.77
2022-11-23T09:08:08.327Z,27.02
2022-11-23T09:10:57.085Z,30.10
2022-11-23T09:13:40.299Z,26.35
2022-11-23T09:16:33.868Z,24.30
2022-11-23T09:19:18.288Z,32.28
2022-11-23T09:22:07.054Z,22.73
2022-11-23T09:24:56.052Z,23.80
2022-11-23T09:27:44.257Z,25.00
2022-11-23T09:30:25.956Z,23.23
2022-11-23T09:33:15.948Z,25.60
2022-11-23T09:36:15.935Z,24.23
2022-11-23T09:39:04.888Z,21.73
2022-11-23T09:42:12.026Z,26.88
2022-11-23T09:44:54.181Z,31.23
2022-11-23T09:48:00.988Z,34.83
2022-11-23T09:50:59.275Z,21.95
2022-11-23T09:53:57.042Z,20.25
2022-11-23T09:56:41.835Z,25.67
2022-11-23T09:59:49.967Z,28.98
2022-11-23T10:02:43.975Z,30.50
2022-11-23T10:05:30.257Z,31.63
2022-11-23T10:08:38.887Z,21.45
2022-11-23T10:11:33.287Z,29.40
2022-11-23T10:14:32.210Z,28.88
2022-11-23T10:17:31.302Z,29.25
2022-11-23T10:20:48.032Z,30.60
2022-11-23T10:24:03.316Z,22.02
2022-11-23T10:27:07.063Z,24.63
2022-11-23T10:29:57.684Z,27.15
2022-11-23T10:32:55.017Z,26.45
2022-11-23T10:35:44.260Z,31.90
2022-11-23T10:38:28.957Z,24.50
2022-11-23T10:41:21.335Z,22.60
2022-11-23T10:44:32.371Z,22.92
2022-11-23T10:47:55.974Z,37.67
2022-11-23T10:50:42.277Z,25.95
2022-11-23T10:53:33.996Z,29.15
2022-11-23T10:56:21.260Z,30.20
2022-11-23T10:59:10.056Z,26.63
2022-11-23T11:02:11.288Z,28.27
2022-11-23T11:05:20.072Z,30.73
2022-11-23T11:08:09.251Z,42.35
2022-11-23T11:11:10.978Z,30.80
2022-11-23T11:14:02.997Z,37.05
2022-11-23T11:16:59.122Z,36.28
2022-11-23T11:19:50.044Z,35.58
2022-11-23T11:22:37.518Z,33.70
2022-11-23T11:25:45.897Z,37.58
2022-11-23T11:28:44.861Z,45.10
2022-11-23T11:31:47.944Z,41.08
2022-11-23T11:34:48.162Z,34.85
2022-11-23T11:37:52.041Z,38.88
2022-11-23T11:40:54.941Z,33.42
2022-11-23T11:43:50.033Z,33.75
2022-11-23T11:46:39.471Z,34.08
2022-11-23T11:49:38.996Z,30.52
2022-11-23T11:52:28.726Z,35.17
2022-11-23T11:55:33.065Z,36.20
2022-11-23T11:58:18.216Z,34.92
2022-11-23T12:01:43.007Z,36.30
2022-11-23T12:05:06.997Z,39.83
2022-11-23T12:08:21.031Z,39.13
2022-11-23T12:11:07.767Z,42.40
2022-11-23T12:13:57.957Z,45.95
2022-11-23T12:20:21.423Z,47.00
2022-11-23T12:23:30.973Z,51.58
2022-11-23T12:26:53.256Z,48.85
2022-11-23T12:29:54.974Z,45.15
2022-11-23T12:33:07.010Z,46.63
2022-11-23T12:36:07.286Z,54.67
2022-11-23T12:39:10.997Z,48.72
2022-11-23T12:45:00.976Z,48.70
2022-11-23T12:47:58.456Z,49.45
2022-11-23T12:50:58.006Z,62.25
2022-11-23T12:54:12.450Z,47.58
2022-11-23T12:57:05.991Z,53.60
2022-11-23T12:59:57.284Z,54.33
2022-11-23T13:03:05.965Z,53.00
2022-11-23T13:06:28.965Z,50.80
2022-11-23T13:09:30.021Z,47.40
2022-11-23T13:12:25.015Z,55.67
2022-11-23T13:15:43.712Z,65.20
2022-11-23T13:19:09.962Z,71.20
2022-11-23T13:21:59.337Z,65.07
2022-11-23T13:24:45.975Z,63.60
2022-11-23T13:27:51.271Z,52.80
2022-11-23T13:31:13.261Z,76.97
2022-11-23T13:33:47.323Z,66.63
2022-11-23T13:37:10.551Z,71.90
2022-11-23T13:39:53.298Z,64.75
2022-11-23T13:42:45.924Z,58.13
2022-11-23T13:45:47.006Z,59.10
2022-11-23T13:51:41.028Z,62.60
2022-11-23T13:54:31.647Z,63.83
2022-11-23T13:57:21.951Z,66.68
2022-11-23T14:00:50.087Z,68.75
2022-11-23T14:03:51.430Z,65.57
2022-11-23T14:06:52.023Z,77.45
2022-11-23T14:09:53.265Z,75.18
2022-11-23T14:12:49.960Z,93.85
2022-11-23T14:15:43.961Z,78.13
2022-11-23T14:18:44.390Z,85.15
2022-11-23T14:21:49.057Z,94.25
2022-11-23T14:24:52.376Z,75.05
2022-11-23T14:28:05.979Z,89.18
2022-11-23T14:30:57.327Z,82.30
2022-11-23T14:33:52.059Z,85.80
2022-11-23T14:36:43.304Z,83.47
2022-11-23T14:40:00.053Z,76.80
2022-11-23T14:42:54.321Z,76.45
2022-11-23T14:45:42.065Z,87.22
2022-11-23T14:48:35.249Z,83.35
2022-11-23T14:51:39.053Z,79.67
2022-11-23T14:57:11.935Z,74.25
2022-11-23T15:00:11.818Z,85.10
2022-11-23T15:03:07.242Z,92.68
2022-11-23T15:06:22.382Z,65.78
2022-11-23T15:09:42.041Z,71.53
2022-11-23T15:12:34.345Z,69.78
2022-11-23T15:15:41.144Z,71.45
2022-11-23T15:18:41.379Z,78.13
2022-11-23T15:21:33.006Z,67.32
2022-11-23T15:24:27.185Z,73.50
2022-11-23T15:27:20.855Z,69.68
2022-11-23T15:32:53.928Z,78.05
2022-11-23T15:35:44.868Z,81.60
2022-11-23T15:38:28.282Z,82.18
2022-11-23T15:41:16.926Z,84.25
2022-11-23T15:44:07.273Z,82.00
2022-11-23T15:46:56.941Z,81.38
2022-11-23T15:49:39.346Z,78.78
2022-11-23T15:52:28.949Z,91.05
2022-11-23T15:55:16.907Z,80.75
2022-11-23T15:58:07.913Z,86.55
2022-11-23T16:01:05.453Z,88.07
2022-11-23T16:03:59.880Z,95.38
2022-11-23T16:06:56.847Z,85.43
2022-11-23T16:09:52.703Z,94.53
2022-11-23T16:12:41.872Z,85.28
2022-11-23T16:15:38.814Z,101.53
2022-11-23T16:18:39.987Z,107.15
2022-11-23T16:21:27.844Z,113.85
2022-11-23T16:24:28.434Z,110.68
2022-11-23T16:27:23.244Z,93.25
2022-11-23T16:30:06.018Z,113.97
2022-11-23T16:32:54.300Z,111.20
2022-11-23T16:35:36.946Z,102.93
2022-11-23T16:38:19.335Z,104.80
2022-11-23T16:41:07.976Z,107.68
2022-11-23T16:43:59.009Z,101.00
2022-11-23T16:46:47.967Z,101.85
2022-11-23T16:49:37.003Z,99.50
2022-11-23T16:52:19.285Z,103.45
2022-11-23T16:55:07.868Z,92.22
2022-11-23T16:58:00.999Z,101.97
2022-11-23T17:00:49.876Z,98.97
2022-11-23T17:03:32.327Z,98.53
2022-11-23T17:06:22.888Z,101.72
2022-11-23T17:09:08.087Z,106.38
2022-11-23T17:11:58.888Z,103.35
2022-11-23T17:14:52.983Z,101.05
2022-11-23T17:17:35.258Z,89.88
2022-11-23T17:20:27.920Z,100.88
2022-11-23T17:23:10.168Z,88.65
2022-11-23T17:25:58.976Z,90.13
2022-11-23T17:28:47.216Z,106.80
2022-11-23T17:31:29.960Z,101.45
2022-11-23T17:34:19.577Z,94.60
2022-11-23T17:37:02.012Z,100.47
2022-11-23T17:39:44.325Z,93.63
2022-11-23T17:42:33.859Z,89.20
2022-11-23T17:45:16.443Z,93.68
2022-11-23T17:48:04.853Z,90.45
2022-11-23T17:50:53.215Z,104.68
2022-11-23T17:53:36.018Z,97.78
2022-11-23T17:56:29.633Z,103.20
2022-11-23T17:59:20.038Z,94.75
2022-11-23T18:02:08.274Z,87.72
2022-11-23T18:04:51.042Z,98.85
2022-11-23T18:07:39.354Z,100.07
2022-11-23T18:10:21.971Z,98.05
2022-11-23T18:13:12.763Z,102.70
2022-11-23T18:15:55.953Z,101.95
2022-11-23T18:18:45.380Z,93.80
2022-11-23T18:21:27.881Z,100.88
2022-11-23T18:24:17.320Z,102.53
2022-11-23T18:27:12.003Z,101.72
2022-11-23T18:30:01.276Z,101.20
2022-11-23T18:32:43.867Z,91.35
2022-11-23T18:35:32.850Z,102.68
2022-11-23T18:38:15.308Z,98.43
2022-11-23T18:41:03.836Z,94.72
2022-11-23T18:43:46.254Z,109.13
2022-11-23T18:46:36.923Z,101.45
2022-11-23T18:49:20.320Z,114.93
2022-11-23T18:52:08.977Z,96.45
2022-11-23T18:54:51.396Z,99.60
2022-11-23T18:57:39.970Z,107.60
2022-11-23T19:00:22.506Z,96.95
2022-11-23T19:03:11.950Z,106.25
2022-11-23T19:06:01.050Z,90.90
2022-11-23T19:08:48.154Z,102.82
2022-11-23T19:11:39.929Z,91.93
2022-11-23T19:14:22.168Z,106.47
2022-11-23T19:17:10.820Z,97.88
2022-11-23T19:19:59.830Z,86.75
2022-11-23T19:22:43.264Z,106.25
2022-11-23T19:25:32.918Z,98.75
2022-11-23T19:28:21.170Z,97.53
2022-11-23T19:31:04.013Z,99.15
2022-11-23T19:33:53.879Z,97.47
2022-11-23T19:36:44.912Z,98.65
2022-11-23T19:39:27.153Z,88.72
2022-11-23T19:42:15.932Z,95.20
2022-11-23T19:45:04.325Z,94.70
2022-11-23T19:47:46.920Z,101.13
2022-11-23T19:50:29.358Z,113.85
2022-11-23T19:53:17.926Z,103.97
2022-11-23T19:56:09.233Z,85.30
2022-11-23T19:58:58.860Z,103.80
2022-11-23T20:01:48.090Z,97.50
2022-11-23T20:04:30.479Z,93.15
2022-11-23T20:07:21.108Z,85.55
2022-11-23T20:10:03.234Z,87.47
2022-11-23T20:12:51.950Z,106.28
2022-11-23T20:15:34.234Z,96.40
2022-11-23T20:18:29.553Z,95.03
2022-11-23T20:21:12.978Z,88.82
2022-11-23T20:24:13.245Z,102.97
2022-11-23T20:27:07.785Z,95.20
2022-11-23T20:29:56.981Z,94.00
2022-11-23T20:32:39.273Z,92.38
2022-11-23T20:35:28.294Z,102.25
2022-11-23T20:38:11.392Z,100.55
2022-11-23T20:41:00.964Z,82.88
2022-11-23T20:43:43.215Z,95.50
2022-11-23T20:49:35.462Z,100.43
2022-11-23T20:52:23.816Z,95.53
2022-11-23T20:55:06.385Z,93.18
2022-11-23T20:57:54.917Z,96.40
2022-11-23T21:00:48.653Z,103.93
2022-11-23T21:03:42.287Z,87.13
2022-11-23T21:06:24.982Z,99.25
2022-11-23T21:09:13.335Z,96.40
2022-11-23T21:12:13.813Z,104.60
2022-11-23T21:15:02.213Z,103.07
2022-11-23T21:17:43.863Z,104.10
2022-11-23T21:20:36.421Z,98.03
2022-11-23T21:23:18.823Z,102.85
2022-11-23T21:26:07.681Z,101.55
2022-11-23T21:28:56.951Z,94.20
2022-11-23T21:31:47.359Z,104.30
2022-11-23T21:34:34.283Z,100.75
2022-11-23T21:37:23.322Z,124.03
2022-11-23T21:40:04.857Z,110.20
2022-11-23T21:42:47.277Z,104.95
2022-11-23T21:45:36.121Z,112.30
2022-11-23T21:48:18.129Z,106.70
2022-11-23T21:51:26.899Z,107.18
2022-11-23T21:54:23.864Z,104.30
2022-11-23T21:57:12.201Z,121.85
2022-11-23T21:59:54.786Z,117.18
2022-11-23T22:02:47.134Z,120.78
2022-11-23T22:05:35.902Z,120.40
2022-11-23T22:08:31.385Z,118.50
2022-11-23T22:11:21.836Z,123.78
2022-11-23T22:14:16.000Z,123.47
2022-11-23T22:16:59.407Z,131.50
2022-11-23T22:19:47.845Z,124.77
2022-11-23T22:22:30.625Z,126.13
2022-11-23T22:25:19.976Z,135.10
2022-11-23T22:28:14.792Z,122.82
2022-11-23T22:31:03.947Z,122.07
2022-11-23T22:33:53.953Z,127.18
2022-11-23T22:36:42.237Z,112.90
2022-11-23T22:39:23.833Z,118.55
2022-11-23T22:42:13.455Z,117.05
2022-11-23T22:44:55.178Z,130.05
2022-11-23T22:47:37.283Z,116.50
2022-11-23T22:50:25.981Z,117.57
2022-11-23T22:53:08.106Z,116.97
2022-11-23T22:55:56.934Z,124.93
2022-11-23T22:58:45.648Z,122.03
2022-11-23T23:01:30.990Z,120.97
2022-11-23T23:04:20.237Z,120.32
2022-11-23T23:07:02.929Z,116.82
2022-11-23T23:09:51.205Z,123.20
2022-11-23T23:12:33.952Z,122.18
2022-11-23T23:15:22.267Z,130.43
2022-11-23T23:18:04.907Z,120.65
2022-11-23T23:20:53.208Z,124.72
2022-11-23T23:23:35.991Z,122.80
2022-11-23T23:26:20.554Z,121.18
2022-11-23T23:29:11.916Z,123.57
2022-11-23T23:31:54.209Z,132.77
2022-11-23T23:34:42.823Z,126.68
2022-11-23T23:37:32.240Z,132.05
2022-11-23T23:40:14.911Z,136.23
2022-11-23T23:43:05.201Z,135.07
2022-11-23T23:45:47.258Z,126.18
2022-11-23T23:48:34.805Z,124.72
2022-11-23T23:51:24.916Z,125.95
2022-11-23T23:54:07.386Z,116.78
2022-11-23T23:56:55.925Z,121.20
2022-11-23T23:59:45.237Z,118.82
